createdAt,value
2019-03-05T00:01:26.305Z,8.23
2019-03-05T00:03:54.935Z,11.30
2019-03-05T00:06:23.645Z,9.27
2019-03-05T00:08:52.293Z,7.77
2019-03-05T00:11:20.931Z,8.67
2019-03-05T00:13:50.396Z,7.17
2019-03-05T00:16:19.122Z,5.60
2019-03-05T00:18:47.746Z,6.30
2019-03-05T00:21:16.379Z,6.40
2019-03-05T00:23:52.695Z,6.47
2019-03-05T00:26:30.141Z,5.83
2019-03-05T00:29:10.801Z,5.27
2019-03-05T00:31:44.808Z,6.37
2019-03-05T00:41:16.274Z,5.30
2019-03-05T00:43:50.548Z,4.37
2019-03-05T00:46:22.139Z,5.63
2019-03-05T00:49:05.519Z,4.87
2019-03-05T00:51:53.614Z,4.20
2019-03-05T00:54:45.917Z,5.37
2019-03-05T00:57:38.502Z,5.53
2019-03-05T01:00:42.811Z,5.23
2019-03-05T01:03:23.039Z,5.17
2019-03-05T01:06:16.634Z,5.63
2019-03-05T01:08:45.393Z,6.60
2019-03-05T01:11:14.480Z,6.80
2019-03-05T01:13:44.001Z,7.03
2019-03-05T01:16:14.336Z,5.73
2019-03-05T01:18:43.155Z,5.00
2019-03-05T01:21:11.844Z,5.23
2019-03-05T01:23:40.499Z,6.67
2019-03-05T01:26:09.108Z,7.00
2019-03-05T01:28:37.732Z,8.70
2019-03-05T01:31:20.081Z,7.37
2019-03-05T01:34:02.506Z,6.60
2019-03-05T01:36:35.750Z,7.17
2019-03-05T01:39:20.218Z,6.13
2019-03-05T01:41:48.942Z,6.07
2019-03-05T01:44:17.559Z,5.40
2019-03-05T01:46:46.257Z,6.00
2019-03-05T01:49:14.904Z,5.27
2019-03-05T01:51:43.522Z,5.70
2019-03-05T01:54:12.135Z,5.33
2019-03-05T01:56:40.797Z,5.73
2019-03-05T01:59:09.437Z,5.23
2019-03-05T02:01:38.220Z,4.40
2019-03-05T02:04:06.953Z,4.83
2019-03-05T02:06:35.588Z,4.90
2019-03-05T02:09:05.645Z,4.27
2019-03-05T02:11:34.303Z,4.60
2019-03-05T02:14:02.981Z,4.50
2019-03-05T02:16:31.597Z,4.87
2019-03-05T02:19:34.162Z,4.80
2019-03-05T02:22:02.880Z,5.50
2019-03-05T02:25:03.104Z,4.97
2019-03-05T02:27:43.301Z,6.10
2019-03-05T02:30:26.930Z,5.00
2019-03-05T02:33:14.787Z,4.93
2019-03-05T02:38:31.398Z,5.13
2019-03-05T02:41:11.754Z,4.53
2019-03-05T02:43:57.861Z,3.93
2019-03-05T02:46:41.244Z,4.83
2019-03-05T02:49:18.393Z,5.17
2019-03-05T02:51:52.735Z,5.53
2019-03-05T02:54:36.061Z,5.37
2019-03-05T02:57:09.919Z,5.47
2019-03-05T02:59:38.720Z,5.90
2019-03-05T03:02:15.096Z,4.93
2019-03-05T03:04:54.517Z,4.57
2019-03-05T03:07:23.170Z,4.63
2019-03-05T03:09:54.686Z,4.23
2019-03-05T03:12:23.379Z,5.17
2019-03-05T03:14:52.031Z,6.27
2019-03-05T03:17:20.727Z,5.00
2019-03-05T03:19:49.348Z,5.50
2019-03-05T03:22:18.005Z,5.80
2019-03-05T03:24:46.615Z,4.83
2019-03-05T03:27:15.231Z,5.60
2019-03-05T03:29:43.897Z,5.07
2019-03-05T03:32:12.520Z,5.47
2019-03-05T03:34:41.147Z,5.70
2019-03-05T03:37:09.786Z,5.60
2019-03-05T03:39:38.413Z,5.87
2019-03-05T03:42:07.045Z,5.80
2019-03-05T03:44:35.711Z,7.67
2019-03-05T03:47:04.333Z,5.60
2019-03-05T03:49:32.946Z,4.50
2019-03-05T03:52:01.589Z,5.03
2019-03-05T03:54:30.219Z,5.07
2019-03-05T03:56:58.815Z,4.97
2019-03-05T03:59:27.456Z,4.87
2019-03-05T04:01:56.064Z,5.07
2019-03-05T04:04:24.697Z,4.97
2019-03-05T04:06:53.629Z,5.27
2019-03-05T04:09:22.237Z,5.87
2019-03-05T04:11:50.871Z,4.17
2019-03-05T04:14:19.510Z,8.17
2019-03-05T04:16:48.124Z,8.87
2019-03-05T04:19:18.387Z,8.43
2019-03-05T04:21:47.044Z,6.07
2019-03-05T04:24:15.651Z,5.43
2019-03-05T04:26:44.263Z,4.77
2019-03-05T04:29:12.904Z,5.67
2019-03-05T04:31:41.529Z,6.23
2019-03-05T04:34:10.177Z,4.90
2019-03-05T04:36:38.839Z,5.30
2019-03-05T04:39:10.360Z,4.93
2019-03-05T04:41:38.983Z,5.77
2019-03-05T04:44:07.710Z,5.67
2019-03-05T04:46:36.593Z,5.33
2019-03-05T04:49:09.386Z,5.73
2019-03-05T04:51:39.714Z,5.37
2019-03-05T04:54:08.326Z,5.37
2019-03-05T04:56:36.937Z,5.53
2019-03-05T04:59:05.585Z,5.13
2019-03-05T05:01:34.272Z,6.33
2019-03-05T05:04:02.912Z,7.03
2019-03-05T05:06:31.573Z,6.20
2019-03-05T05:09:00.180Z,5.17
2019-03-05T05:11:28.807Z,5.43
2019-03-05T05:13:57.452Z,4.83
2019-03-05T05:16:26.073Z,7.67
2019-03-05T05:18:54.686Z,7.03
2019-03-05T05:21:23.337Z,6.03
2019-03-05T05:23:52.627Z,9.03
2019-03-05T05:26:21.243Z,6.33
2019-03-05T05:28:49.889Z,7.47
2019-03-05T05:31:18.512Z,8.00
2019-03-05T05:33:47.133Z,8.03
2019-03-05T05:36:15.795Z,9.23
2019-03-05T05:38:44.417Z,7.00
2019-03-05T05:41:13.042Z,7.90
2019-03-05T05:43:41.687Z,6.07
2019-03-05T05:46:10.309Z,5.83
2019-03-05T05:48:38.935Z,5.27
2019-03-05T05:51:07.660Z,6.20
2019-03-05T05:53:36.285Z,6.30
2019-03-05T05:56:04.982Z,6.03
2019-03-05T05:58:33.636Z,6.73
2019-03-05T06:01:03.893Z,6.10
2019-03-05T06:03:32.512Z,6.83
2019-03-05T06:06:01.166Z,7.07
2019-03-05T06:08:29.785Z,6.03
2019-03-05T06:10:58.415Z,5.70
2019-03-05T06:13:27.077Z,5.83
2019-03-05T06:15:55.756Z,6.93
2019-03-05T06:18:24.375Z,6.77
2019-03-05T06:20:53.023Z,6.50
2019-03-05T06:23:21.716Z,6.57
2019-03-05T06:25:50.355Z,6.07
2019-03-05T06:28:19.023Z,6.80
2019-03-05T06:30:47.652Z,5.83
2019-03-05T06:33:16.276Z,5.70
2019-03-05T06:35:44.935Z,6.30
2019-03-05T06:38:13.495Z,6.33
2019-03-05T06:40:42.117Z,6.17
2019-03-05T06:43:10.778Z,13.73
2019-03-05T06:45:39.408Z,16.93
2019-03-05T06:48:08.035Z,11.20
2019-03-05T06:50:36.681Z,10.43
2019-03-05T06:53:05.317Z,9.10
2019-03-05T06:55:33.934Z,8.17
2019-03-05T06:58:02.597Z,6.77
2019-03-05T07:00:34.193Z,7.13
2019-03-05T07:03:03.464Z,6.20
2019-03-05T07:06:08.926Z,8.17
2019-03-05T07:08:39.492Z,9.67
2019-03-05T07:11:22.632Z,7.80
2019-03-05T07:13:53.587Z,8.40
2019-03-05T07:16:37.126Z,7.47
2019-03-05T07:19:06.158Z,8.37
2019-03-05T07:21:54.358Z,7.50
2019-03-05T07:24:25.892Z,6.97
2019-03-05T07:26:54.514Z,6.17
2019-03-05T07:29:23.162Z,5.87
2019-03-05T07:31:51.791Z,6.70
2019-03-05T07:34:22.061Z,5.73
2019-03-05T07:36:50.710Z,5.37
2019-03-05T07:39:22.440Z,6.37
2019-03-05T07:41:51.071Z,6.10
2019-03-05T07:44:19.727Z,5.70
2019-03-05T07:46:48.350Z,6.30
2019-03-05T07:49:16.980Z,7.27
2019-03-05T07:51:45.640Z,7.30
2019-03-05T07:54:14.274Z,7.40
2019-03-05T07:56:42.888Z,8.30
2019-03-05T07:59:11.555Z,6.63
2019-03-05T08:01:40.170Z,7.10
2019-03-05T08:04:08.864Z,7.00
2019-03-05T08:06:37.521Z,6.73
2019-03-05T08:09:30.424Z,6.70
2019-03-05T08:12:17.056Z,7.00
2019-03-05T08:15:06.736Z,8.00
2019-03-05T08:17:35.402Z,6.93
2019-03-05T08:20:05.342Z,7.53
2019-03-05T08:22:34.071Z,7.57
2019-03-05T08:25:02.727Z,7.37
2019-03-05T08:27:31.345Z,8.23
2019-03-05T08:29:59.958Z,7.50
2019-03-05T08:32:28.616Z,7.30
2019-03-05T08:34:57.239Z,8.17
2019-03-05T08:37:25.851Z,6.93
2019-03-05T08:39:54.508Z,7.10
2019-03-05T08:42:23.134Z,8.10
2019-03-05T08:44:51.758Z,8.13
2019-03-05T08:47:20.426Z,7.67
2019-03-05T08:49:49.056Z,7.90
2019-03-05T08:52:17.682Z,7.50
2019-03-05T08:54:46.352Z,5.50
2019-03-05T08:57:14.959Z,7.63
2019-03-05T08:59:43.587Z,4.60
2019-03-05T09:02:12.243Z,3.20
2019-03-05T09:04:41.013Z,3.73
2019-03-05T09:07:09.576Z,3.27
2019-03-05T09:09:38.232Z,3.37
2019-03-05T09:12:06.867Z,3.43
2019-03-05T09:14:35.485Z,3.07
2019-03-05T09:17:04.549Z,3.00
2019-03-05T09:19:33.167Z,3.60
2019-03-05T09:22:01.846Z,3.03
2019-03-05T09:24:30.492Z,4.60
2019-03-05T09:26:59.123Z,3.20
2019-03-05T09:29:27.808Z,3.30
2019-03-05T09:31:56.459Z,3.03
2019-03-05T09:34:25.074Z,2.70
2019-03-05T09:36:53.698Z,3.30
2019-03-05T09:39:22.371Z,3.23
2019-03-05T09:41:50.988Z,2.63
2019-03-05T09:44:19.607Z,2.90
2019-03-05T09:46:48.257Z,3.40
2019-03-05T09:49:16.879Z,3.07
2019-03-05T09:51:45.498Z,2.90
2019-03-05T09:54:14.146Z,2.93
2019-03-05T09:56:42.764Z,3.13
2019-03-05T09:59:11.390Z,2.97
2019-03-05T10:01:40.045Z,3.37
2019-03-05T10:04:08.658Z,3.10
2019-03-05T10:06:37.287Z,4.40
2019-03-05T10:09:06.947Z,5.10
2019-03-05T10:11:35.578Z,4.77
2019-03-05T10:14:04.196Z,4.00
2019-03-05T10:16:32.861Z,4.17
2019-03-05T10:19:01.572Z,2.20
2019-03-05T10:21:30.182Z,3.20
2019-03-05T10:24:09.773Z,4.87
2019-03-05T10:26:29.266Z,4.37
2019-03-05T10:28:57.885Z,4.10
2019-03-05T10:31:26.550Z,5.87
2019-03-05T10:33:55.263Z,3.60
2019-03-05T10:36:24.093Z,2.80
2019-03-05T10:38:57.263Z,3.27
2019-03-05T10:41:23.163Z,3.83
2019-03-05T10:43:51.776Z,3.63
2019-03-05T10:46:20.431Z,3.30
2019-03-05T10:48:49.053Z,3.30
2019-03-05T10:51:17.678Z,3.57
2019-03-05T10:53:46.327Z,2.37
2019-03-05T10:56:15.110Z,2.50
2019-03-05T10:58:43.733Z,2.97
2019-03-05T11:01:13.153Z,3.43
2019-03-05T11:03:41.844Z,4.00
2019-03-05T11:06:10.564Z,3.23
2019-03-05T11:08:39.281Z,3.00
2019-03-05T11:11:13.672Z,2.77
2019-03-05T11:13:38.443Z,2.50
2019-03-05T11:16:07.491Z,3.17
2019-03-05T11:18:37.321Z,3.30
2019-03-05T11:21:06.453Z,3.07
2019-03-05T11:23:35.131Z,3.10
2019-03-05T11:26:03.919Z,3.10
2019-03-05T11:28:32.543Z,3.13
2019-03-05T11:31:01.258Z,3.17
2019-03-05T11:33:29.892Z,3.30
2019-03-05T11:35:58.504Z,3.23
2019-03-05T11:38:27.169Z,3.20
2019-03-05T11:40:55.787Z,3.30
2019-03-05T11:43:24.403Z,2.93
2019-03-05T11:45:53.064Z,3.07
2019-03-05T11:48:21.753Z,3.33
2019-03-05T11:50:51.546Z,3.37
2019-03-05T11:53:20.403Z,3.33
2019-03-05T11:55:49.024Z,3.30
2019-03-05T11:58:17.709Z,2.70
2019-03-05T12:00:53.694Z,3.03
2019-03-05T12:03:22.321Z,2.60
2019-03-05T12:05:51.013Z,2.93
2019-03-05T12:08:19.686Z,3.00
2019-03-05T12:10:48.306Z,3.10
2019-03-05T12:13:17.017Z,3.30
2019-03-05T12:15:46.066Z,2.50
2019-03-05T12:18:14.689Z,2.87
2019-03-05T12:20:43.324Z,2.73
2019-03-05T12:23:12.091Z,2.87
2019-03-05T12:25:41.109Z,2.87
2019-03-05T12:28:10.990Z,2.60
2019-03-05T12:30:40.093Z,3.03
2019-03-05T12:33:08.746Z,3.43
2019-03-05T12:35:37.447Z,3.47
2019-03-05T12:38:06.214Z,3.47
2019-03-05T12:40:34.839Z,4.90
2019-03-05T12:43:03.469Z,4.20
2019-03-05T12:45:32.174Z,3.07
2019-03-05T12:48:00.796Z,4.27
2019-03-05T12:50:36.212Z,3.67
2019-03-05T12:53:04.969Z,3.43
2019-03-05T12:55:33.600Z,3.07
2019-03-05T12:58:02.289Z,5.03
2019-03-05T13:00:37.573Z,3.43
2019-03-05T13:03:06.302Z,3.80
2019-03-05T13:05:35.033Z,4.93
2019-03-05T13:08:03.808Z,6.30
2019-03-05T13:10:37.656Z,3.37
2019-03-05T13:13:06.363Z,2.90
2019-03-05T13:15:36.421Z,3.73
2019-03-05T13:18:05.241Z,3.70
2019-03-05T13:20:33.857Z,3.30
2019-03-05T13:23:08.777Z,3.23
2019-03-05T13:25:32.855Z,4.13
2019-03-05T13:28:02.492Z,3.33
2019-03-05T13:30:32.648Z,2.87
2019-03-05T13:33:01.273Z,3.10
2019-03-05T13:35:31.765Z,3.13
2019-03-05T13:38:09.543Z,3.10
2019-03-05T13:40:40.263Z,2.57
2019-03-05T13:43:08.663Z,2.60
2019-03-05T13:45:37.313Z,5.80
2019-03-05T13:48:25.130Z,3.50
2019-03-05T13:51:05.477Z,4.47
2019-03-05T13:54:00.056Z,4.07
2019-03-05T13:56:30.734Z,3.30
2019-03-05T13:59:14.155Z,3.10
2019-03-05T14:01:42.820Z,3.30
2019-03-05T14:04:16.560Z,3.60
2019-03-05T14:06:50.507Z,3.00
2019-03-05T14:09:19.014Z,3.83
2019-03-05T14:11:49.030Z,2.83
2019-03-05T14:14:25.183Z,3.03
2019-03-05T14:16:55.614Z,3.20
2019-03-05T14:19:24.236Z,3.90
2019-03-05T14:21:52.941Z,4.10
2019-03-05T14:24:21.549Z,4.50
2019-03-05T14:26:50.138Z,4.80
2019-03-05T14:29:18.814Z,4.03
2019-03-05T14:31:47.439Z,5.20
2019-03-05T14:34:16.072Z,9.20
2019-03-05T14:36:44.717Z,5.30
2019-03-05T14:39:25.306Z,6.73
2019-03-05T14:41:54.238Z,5.90
2019-03-05T14:44:23.095Z,6.67
2019-03-05T14:46:56.915Z,6.87
2019-03-05T14:49:25.705Z,8.60
2019-03-05T14:51:54.358Z,12.77
2019-03-05T14:54:23.065Z,8.43
2019-03-05T14:56:51.742Z,4.90
2019-03-05T14:59:20.379Z,4.67
2019-03-05T15:01:49.035Z,6.43
2019-03-05T15:04:17.759Z,8.23
2019-03-05T15:06:46.482Z,9.20
2019-03-05T15:09:15.185Z,9.97
2019-03-05T15:11:43.853Z,7.03
2019-03-05T15:14:12.560Z,7.00
2019-03-05T15:16:41.319Z,7.40
2019-03-05T15:19:20.880Z,8.57
2019-03-05T15:21:40.312Z,6.40
2019-03-05T15:24:08.962Z,7.13
2019-03-05T15:26:37.650Z,6.33
2019-03-05T15:29:06.376Z,5.57
2019-03-05T15:31:35.258Z,6.27
2019-03-05T15:34:03.988Z,6.17
2019-03-05T15:36:32.726Z,5.77
2019-03-05T15:39:01.330Z,5.60
2019-03-05T15:41:30.073Z,5.93
2019-03-05T15:43:58.796Z,6.57
2019-03-05T15:46:27.489Z,5.40
2019-03-05T15:48:56.112Z,5.00
2019-03-05T15:51:24.948Z,5.37
2019-03-05T15:53:53.608Z,6.10
2019-03-05T15:56:22.344Z,8.83
2019-03-05T15:58:51.035Z,13.37
2019-03-05T16:01:22.483Z,33.23
2019-03-05T16:03:50.205Z,18.97
2019-03-05T16:06:18.897Z,9.63
2019-03-05T16:08:47.583Z,9.00
2019-03-05T16:11:16.238Z,8.47
2019-03-05T16:13:44.862Z,7.80
2019-03-05T16:16:13.556Z,8.37
2019-03-05T16:18:42.292Z,5.63
2019-03-05T16:21:10.901Z,4.90
2019-03-05T16:23:39.528Z,4.80
2019-03-05T16:26:08.262Z,4.73
2019-03-05T16:28:39.348Z,6.33
2019-03-05T16:31:11.347Z,5.10
2019-03-05T16:33:40.898Z,5.10
2019-03-05T16:36:29.140Z,5.20
2019-03-05T16:39:13.908Z,5.57
2019-03-05T16:41:53.356Z,5.53
2019-03-05T16:44:38.184Z,4.90
2019-03-05T16:47:11.247Z,5.40
2019-03-05T16:49:41.509Z,5.90
2019-03-05T16:52:14.802Z,6.10
2019-03-05T16:54:54.082Z,6.07
2019-03-05T16:57:30.339Z,5.87
2019-03-05T17:00:00.601Z,5.33
2019-03-05T17:02:33.657Z,5.50
2019-03-05T17:05:03.947Z,6.33
2019-03-05T17:07:39.986Z,6.27
2019-03-05T17:10:12.901Z,6.10
2019-03-05T17:12:41.583Z,6.87
2019-03-05T17:15:10.814Z,8.17
2019-03-05T17:17:39.645Z,6.50
2019-03-05T17:20:12.263Z,6.03
2019-03-05T17:22:40.946Z,5.00
2019-03-05T17:25:12.704Z,5.80
2019-03-05T17:27:41.506Z,6.43
2019-03-05T17:30:15.449Z,5.77
2019-03-05T17:32:44.346Z,5.40
2019-03-05T17:35:14.740Z,5.13
2019-03-05T17:37:43.432Z,6.33
2019-03-05T17:40:14.860Z,6.40
2019-03-05T17:42:43.522Z,5.80
2019-03-05T17:45:20.641Z,6.83
2019-03-05T17:47:49.350Z,7.43
2019-03-05T17:50:18.052Z,8.20
2019-03-05T17:52:46.822Z,11.87
2019-03-05T17:55:24.099Z,20.97
2019-03-05T17:57:51.560Z,7.43
2019-03-05T18:00:28.292Z,6.53
2019-03-05T18:02:57.026Z,7.00
2019-03-05T18:05:25.732Z,5.60
2019-03-05T18:07:54.532Z,5.50
2019-03-05T18:10:23.542Z,4.97
2019-03-05T18:12:52.254Z,5.07
2019-03-05T18:15:20.949Z,5.57
2019-03-05T18:17:49.779Z,7.30
2019-03-05T18:20:23.766Z,5.50
2019-03-05T18:22:52.603Z,4.80
2019-03-05T18:25:21.396Z,9.60
2019-03-05T18:27:50.117Z,12.40
2019-03-05T18:30:21.369Z,16.93
2019-03-05T18:32:50.140Z,9.17
2019-03-05T18:35:19.041Z,7.87
2019-03-05T18:37:47.798Z,17.30
2019-03-05T18:40:20.935Z,12.20
2019-03-05T18:42:50.509Z,11.20
2019-03-05T18:45:28.160Z,7.47
2019-03-05T18:47:56.863Z,7.13
2019-03-05T18:50:25.773Z,9.23
2019-03-05T18:53:04.881Z,4.43
2019-03-05T18:55:33.578Z,5.87
2019-03-05T18:58:02.292Z,5.53
2019-03-05T19:00:32.876Z,5.53
2019-03-05T19:03:04.475Z,5.30
2019-03-05T19:05:33.176Z,5.83
2019-03-05T19:08:01.913Z,20.90
2019-03-05T19:10:30.911Z,20.77
2019-03-05T19:12:59.600Z,9.33
2019-03-05T19:15:29.737Z,5.90
2019-03-05T19:17:58.531Z,5.60
2019-03-05T19:20:28.376Z,4.47
2019-03-05T19:22:57.231Z,4.97
2019-03-05T19:25:28.842Z,5.27
2019-03-05T19:27:57.545Z,15.43
2019-03-05T19:30:29.361Z,6.07
2019-03-05T19:32:58.277Z,5.47
2019-03-05T19:35:29.831Z,4.53
2019-03-05T19:37:58.572Z,6.43
2019-03-05T19:40:32.921Z,6.03
2019-03-05T19:43:01.714Z,6.07
2019-03-05T19:45:30.661Z,8.57
2019-03-05T19:47:59.358Z,11.00
2019-03-05T19:50:28.068Z,7.10
2019-03-05T19:52:57.008Z,7.83
2019-03-05T19:55:26.916Z,6.57
2019-03-05T19:58:14.239Z,5.57
2019-03-05T20:01:08.038Z,5.70
2019-03-05T20:03:36.901Z,13.13
2019-03-05T20:06:05.986Z,6.30
2019-03-05T20:08:40.030Z,6.27
2019-03-05T20:11:06.029Z,9.70
2019-03-05T20:13:34.758Z,6.40
2019-03-05T20:16:04.063Z,9.63
2019-03-05T20:18:33.120Z,7.27
2019-03-05T20:21:01.831Z,12.03
2019-03-05T20:23:30.506Z,6.83
2019-03-05T20:25:59.379Z,10.43
2019-03-05T20:28:28.079Z,4.47
2019-03-05T20:30:56.793Z,11.67
2019-03-05T20:33:28.355Z,23.47
2019-03-05T20:35:57.062Z,14.10
2019-03-05T20:38:25.766Z,15.70
2019-03-05T20:40:54.508Z,6.73
2019-03-05T20:43:23.213Z,8.20
2019-03-05T20:46:00.719Z,9.80
2019-03-05T20:48:29.423Z,5.03
2019-03-05T20:50:59.597Z,11.37
2019-03-05T20:53:28.354Z,4.83
2019-03-05T20:55:57.056Z,5.53
2019-03-05T20:58:25.926Z,4.47
2019-03-05T21:00:54.656Z,9.20
2019-03-05T21:03:23.465Z,5.57
2019-03-05T21:05:52.254Z,5.83
2019-03-05T21:08:20.997Z,7.73
2019-03-05T21:10:51.239Z,6.63
2019-03-05T21:13:20.063Z,6.47
2019-03-05T21:15:48.793Z,5.73
2019-03-05T21:18:19.682Z,5.93
2019-03-05T21:20:48.476Z,5.47
2019-03-05T21:23:17.385Z,4.17
2019-03-05T21:25:46.082Z,5.13
2019-03-05T21:28:14.761Z,5.40
2019-03-05T21:30:43.500Z,4.13
2019-03-05T21:33:12.198Z,6.17
2019-03-05T21:35:41.061Z,4.07
2019-03-05T21:38:09.808Z,4.67
2019-03-05T21:40:38.494Z,5.43
2019-03-05T21:43:07.115Z,5.10
2019-03-05T21:45:40.706Z,4.20
2019-03-05T21:48:09.322Z,4.80
2019-03-05T21:50:37.939Z,3.90
2019-03-05T21:53:06.792Z,4.37
2019-03-05T21:55:35.409Z,3.93
2019-03-05T21:58:04.029Z,3.53
2019-03-05T22:00:40.347Z,6.10
2019-03-05T22:03:09.042Z,5.37
2019-03-05T22:05:37.680Z,5.47
2019-03-05T22:08:06.345Z,4.93
2019-03-05T22:10:35.143Z,5.13
2019-03-05T22:13:03.772Z,4.53
2019-03-05T22:15:33.827Z,3.97
2019-03-05T22:18:02.446Z,4.10
2019-03-05T22:20:31.133Z,3.80
2019-03-05T22:22:59.970Z,3.20
2019-03-05T22:25:29.242Z,4.17
2019-03-05T22:27:57.998Z,4.57
2019-03-05T22:30:39.713Z,4.00
2019-03-05T22:33:08.585Z,4.27
2019-03-05T22:35:37.208Z,3.33
2019-03-05T22:38:05.879Z,2.90
2019-03-05T22:40:36.015Z,3.80
2019-03-05T22:43:04.639Z,3.90
2019-03-05T22:45:35.927Z,5.60
2019-03-05T22:48:04.714Z,5.17
2019-03-05T22:50:33.357Z,5.87
2019-03-05T22:53:02.021Z,4.60
2019-03-05T22:55:30.652Z,3.40
2019-03-05T22:57:59.456Z,3.07
2019-03-05T23:00:58.173Z,4.90
2019-03-05T23:03:28.967Z,3.90
2019-03-05T23:05:57.884Z,3.10
2019-03-05T23:08:26.553Z,7.87
2019-03-05T23:10:55.175Z,9.87
2019-03-05T23:13:24.064Z,6.27
2019-03-05T23:15:52.728Z,13.57
2019-03-05T23:18:22.814Z,3.63
2019-03-05T23:20:51.439Z,5.47
2019-03-05T23:23:21.065Z,4.47
2019-03-05T23:25:49.672Z,3.10
2019-03-05T23:28:18.290Z,3.23
2019-03-05T23:30:46.943Z,3.03
2019-03-05T23:33:16.068Z,2.67
2019-03-05T23:35:44.682Z,3.37
2019-03-05T23:38:13.365Z,5.73
2019-03-05T23:40:41.993Z,6.43
2019-03-05T23:43:10.675Z,3.47
2019-03-05T23:45:39.322Z,3.30
2019-03-05T23:48:08.031Z,2.63
2019-03-05T23:50:37.490Z,3.30
2019-03-05T23:53:06.152Z,2.67
2019-03-05T23:55:34.778Z,4.10
2019-03-05T23:58:03.389Z,4.80
